x

Long Island - 30 Nm South Of Islip, Ny (44025) Wave Buoy

3:50am - Sat 23rd May 2015 All times are EDT. -4 hours from GMT.

  • Sig Wave height 3.0ft
  • Swell Direction
  • Peak Period 4s
  • Average Period 4s
  • Wind
    25mph, 31mph gusts
  • Sea Temp 55°f
  • Air Temp 56°f
  • Sea Pressure 1023.5mb
  • Long Island - 30 Nm South Of Islip, Ny
  • Long Island - 30 Nm South Of Islip, Ny

More Historic Weather Station data

Upgrade to MSW Pro to gain access to the past 30 days of data for over 8000 Wavebouys and Weather Stations around the globe.

Join Pro

Comparision Forecast

View Surf forecast
   
Sat 05/23 3:50am 3ft 4s 4s 25 31 mph 1023.5mb 55f 56f
2:50am 2.5ft 5s 4s 20 25 mph 1022.2mb 55f 57f
1:50am 2.5ft 5s 4s 16 18 mph 1021.5mb 55f 58f
12:50am 2.5ft 5s 4s 13
mph
1020.7mb 55f 59f
Fri 05/22 11:50pm 2.5ft 5s 4s 16 18 mph 1019.7mb 56f 60f
10:50pm 2.5ft 7s 4s 16 20 mph 1018.3mb 56f 61f
9:50pm 3ft 4s 4s 16 18 mph 1017.3mb 56f 61f
8:50pm 2.5ft 4s 4s 11 13 mph 1016.3mb 56f 61f
7:50pm 2ft 7s 4s 13
mph
1015.6mb 56f 62f
6:50pm 2.5ft 8s 4s 7 9 mph 1014.8mb 56f 60f
5:50pm 2.5ft 8s 4s 9 11 mph 1014.4mb 56f 59f
4:50pm 2.5ft 3s 4s 13 16 mph 1014mb 56f 60f
3:50pm 2ft 3s 4s 16 18 mph 1013.6mb 56f 59f
2:50pm 2ft 4s 4s 16 18 mph 1013.7mb 56f 59f
1:50pm 2ft 4s 4s 16 20 mph 1013.7mb 55f 58f
12:50pm 2ft 4s 4s 13 16 mph 1013.7mb 55f 57f
11:50am 2.5ft 4s 4s 11 16 mph 1013.9mb 55f 56f
10:50am 2.5ft 4s 4s 16 20 mph 1013.6mb 55f 56f
9:50am 2ft 4s 4s 16 20 mph 1013.2mb 55f 56f
8:50am 1.6ft 3s 4s 16 18 mph 1012.5mb 55f 56f
7:50am 2ft 3s 3s 16 18 mph 1012.1mb 55f 56f
6:50am 1.6ft 8s 4s 16 20 mph 1011.4mb 55f 56f
5:50am 1.3ft 8s 4s 16 18 mph 1010.9mb 55f 55f
4:50am 1ft 8s 7s 13 16 mph 1010.3mb 54f 53f
3:50am 1ft 9s 8s 11 13 mph 1010.5mb 54f 52f
2:50am 1ft 9s 8s 4 7 mph 1011mb 54f 51f
1:50am 1ft 8s 7s 7
mph
1011.5mb 54f 49f
12:50am 1ft 8s 7s 2 4 mph 1011.6mb 55f 49f
Thu 05/21 11:50pm 1ft 9s 7s  -  2 mph 1011.9mb 55f 49f
10:50pm 1ft 9s 6s 2 4 mph 1012.6mb 55f 50f
9:50pm 1ft 8s 6s 2
mph
1013.5mb 55f 50f
8:50pm 1ft 8s 6s 2
mph
1013.6mb 55f 50f
7:50pm 1.3ft 8s 6s 7 9 mph 1014.2mb 55f 50f
6:50pm 1ft 8s 5s 7
mph
1013.8mb 55f 50f
5:50pm 1ft 8s 6s 7 9 mph 1014.1mb 55f 52f
4:50pm 1ft 8s 6s 9 11 mph 1014.3mb 55f 52f
3:50pm 1ft 8s 7s 7 11 mph 1014.4mb 55f 52f
2:50pm 1ft 9s 7s 7 9 mph 1015mb 55f 53f
1:50pm 1ft 8s 7s 7 9 mph 1015.6mb 55f 54f
12:50pm 1ft 8s 7s 2
mph
1015.9mb 55f 54f
11:50am 1.3ft 9s 7s 2 4 mph 1015.8mb 55f 54f
10:50am 1ft 8s 6s 4 7 mph 1015.9mb 55f 54f
9:50am 1ft 9s 5s 7
mph
1016mb 55f 54f
8:50am 1.3ft 8s 5s 2 4 mph 1016.6mb 55f 54f
7:50am 1.3ft 9s 5s 7 9 mph 1016.3mb 55f 54f
6:50am 1.3ft 9s 5s 7
mph
1016.1mb 55f 54f
5:50am 1.6ft 9s 5s 7
mph
1015.3mb 55f 54f
4:50am 1.6ft 9s 5s 9
mph
1015.4mb 55f 55f
3:50am 1.6ft 9s 4s 7 9 mph 1015.6mb 55f 55f
2:50am 2ft 9s 4s 11 13 mph 1015.3mb 55f 55f
1:50am 2ft 9s 4s 9 11 mph 1015.3mb 55f 55f
12:50am 2ft 10s 4s 11 13 mph 1015.4mb 55f 56f
Wed 05/20 11:50pm 2.5ft 9s 4s 13 16 mph 1015.1mb 55f 56f
10:50pm 2.5ft 4s 4s 16 18 mph 1015.2mb 55f 56f
9:50pm 2.5ft 9s 4s 16 18 mph 1014.8mb 55f 57f
8:50pm 2.5ft 9s 4s 18 20 mph 1014.1mb 56f 57f
7:50pm 3.5ft 9s 4s 16 18 mph 1013.2mb 56f 57f
6:50pm 3.5ft 5s 4s 18 22 mph 1012.7mb 56f 58f
5:50pm 4ft 5s 4s 22 27 mph 1012.4mb 56f 57f
4:50pm 5ft 5s 5s 20 25 mph 1012.2mb 56f 57f
3:50pm 4.5ft 5s 5s 22 27 mph 1011.6mb 57f 57f
2:50pm 4.5ft 5s 4s 25 29 mph 1011.4mb 57f 56f
1:50pm 3.5ft 8s 4s 20 25 mph 1011.5mb 57f 57f
12:50pm 3.5ft 9s 4s 20 22 mph 1011.6mb 56f 57f
11:50am 3ft 9s 4s 16 20 mph 1011.6mb 56f 57f
10:50am 2.5ft 8s 5s 13 16 mph 1011.6mb 56f 57f
9:50am 3.5ft 9s 5s 16 20 mph 1011mb 56f 57f
8:50am 3.5ft 9s 5s 18 22 mph 1011mb 56f 57f
7:50am 3.5ft 8s 5s 13 16 mph 1010.8mb 56f 57f
6:50am 3.5ft 8s 5s 16 20 mph 1010.7mb 56f 57f
5:50am 3.5ft 8s 5s 22 27 mph 1009.9mb 56f 58f
4:50am 3.5ft 8s 5s 11 16 mph 1009.8mb 56f 58f
3:50am 3.5ft 9s 5s 11 16 mph 1009.7mb 56f 59f
2:50am 3.5ft 8s 5s 11 13 mph 1009.4mb 56f 59f
1:50am 3.5ft 8s 5s 13 18 mph 1009.2mb 56f 60f
12:50am 3ft 8s 5s 18 22 mph 1008.6mb 56f 64f
Tue 05/19 11:50pm 3ft 9s 6s 11 13 mph 1007.7mb 56f 60f
10:50pm 3ft 9s 5s 13 16 mph 1008.1mb 56f 61f
9:50pm 3ft 9s 6s 11 13 mph 1008.5mb 57f 60f
8:50pm 3ft 9s 6s 11 13 mph 1008.5mb 57f 59f
7:50pm 3.5ft 9s 6s 9
mph
1008.7mb 57f 59f
6:50pm 3ft 9s 6s 11
mph
1008.7mb 57f 58f
5:50pm 3ft 8s 6s 9
mph
1009.5mb 57f 58f
4:50pm 3ft 9s 6s 4
mph
1010.5mb 58f 59f
3:50pm 3ft 9s 6s 7 9 mph 1011.1mb 57f 58f
2:50pm 3ft 9s 6s 4 7 mph 1011.5mb 57f 58f
1:50pm 2.5ft 8s 6s 7
mph
1012.3mb 57f 58f
12:50pm 3ft 9s 6s 4 7 mph 1012.8mb 56f 59f
11:50am 3ft 9s 6s 7
mph
1013.2mb 56f 59f
10:50am 3ft 9s 5s 2
mph
1013.5mb 56f 58f
9:50am 3.5ft 10s 5s 2 4 mph 1014mb 56f 59f